sensor_id;sensor_type;location;lat;lon;timestamp;P1;durP1;ratioP1;P2;durP2;ratioP2
2756;SDS011;1386;50.862;6.494;2024-03-25T05:33:33;8.03;;;5.10;;
2756;SDS011;1386;50.862;6.494;2024-03-25T05:35:59;8.87;;;5.07;;
2756;SDS011;1386;50.862;6.494;2024-03-25T05:38:25;9.13;;;6.23;;
2756;SDS011;1386;50.862;6.494;2024-03-25T05:40:51;7.77;;;5.10;;
2756;SDS011;1386;50.862;6.494;2024-03-25T05:43:17;10.20;;;5.57;;
2756;SDS011;1386;50.862;6.494;2024-03-25T05:45:49;10.97;;;5.60;;
2756;SDS011;1386;50.862;6.494;2024-03-25T05:48:16;12.53;;;6.00;;
2756;SDS011;1386;50.862;6.494;2024-03-25T05:50:43;6.43;;;5.47;;
2756;SDS011;1386;50.862;6.494;2024-03-25T05:53:09;9.80;;;5.50;;
2756;SDS011;1386;50.862;6.494;2024-03-25T05:55:35;15.00;;;5.93;;
2756;SDS011;1386;50.862;6.494;2024-03-25T05:58:01;6.70;;;5.47;;
2756;SDS011;1386;50.862;6.494;2024-03-25T06:00:27;5.93;;;5.33;;
2756;SDS011;1386;50.862;6.494;2024-03-25T06:02:53;7.97;;;5.77;;
2756;SDS011;1386;50.862;6.494;2024-03-25T06:05:19;6.97;;;5.10;;
2756;SDS011;1386;50.862;6.494;2024-03-25T06:07:46;8.33;;;5.43;;
2756;SDS011;1386;50.862;6.494;2024-03-25T06:10:12;8.73;;;5.10;;
2756;SDS011;1386;50.862;6.494;2024-03-25T06:12:39;8.50;;;6.57;;
2756;SDS011;1386;50.862;6.494;2024-03-25T06:15:05;10.03;;;5.70;;
2756;SDS011;1386;50.862;6.494;2024-03-25T06:17:32;10.93;;;5.00;;
2756;SDS011;1386;50.862;6.494;2024-03-25T06:19:58;9.97;;;5.40;;
2756;SDS011;1386;50.862;6.494;2024-03-25T06:22:24;7.90;;;5.27;;
2756;SDS011;1386;50.862;6.494;2024-03-25T06:24:51;7.00;;;5.40;;
2756;SDS011;1386;50.862;6.494;2024-03-25T06:27:17;11.00;;;5.83;;
2756;SDS011;1386;50.862;6.494;2024-03-25T06:29:43;15.13;;;5.80;;
2756;SDS011;1386;50.862;6.494;2024-03-25T06:32:09;9.80;;;5.80;;
2756;SDS011;1386;50.862;6.494;2024-03-25T06:34:53;7.07;;;5.67;;
2756;SDS011;1386;50.862;6.494;2024-03-25T06:37:19;9.27;;;6.10;;
2756;SDS011;1386;50.862;6.494;2024-03-25T06:39:45;10.97;;;5.80;;
2756;SDS011;1386;50.862;6.494;2024-03-25T06:42:12;8.83;;;6.97;;
2756;SDS011;1386;50.862;6.494;2024-03-25T06:44:38;18.60;;;6.80;;
2756;SDS011;1386;50.862;6.494;2024-03-25T06:47:04;10.27;;;5.93;;
2756;SDS011;1386;50.862;6.494;2024-03-25T06:49:30;9.53;;;6.17;;
2756;SDS011;1386;50.862;6.494;2024-03-25T06:51:56;12.40;;;6.97;;
2756;SDS011;1386;50.862;6.494;2024-03-25T06:54:22;11.83;;;6.73;;
2756;SDS011;1386;50.862;6.494;2024-03-25T06:56:47;15.80;;;7.27;;
2756;SDS011;1386;50.862;6.494;2024-03-25T06:59:15;10.83;;;7.30;;
2756;SDS011;1386;50.862;6.494;2024-03-25T07:01:41;9.73;;;7.73;;
2756;SDS011;1386;50.862;6.494;2024-03-25T07:04:07;12.93;;;7.83;;
2756;SDS011;1386;50.862;6.494;2024-03-25T07:06:33;9.20;;;7.40;;
2756;SDS011;1386;50.862;6.494;2024-03-25T07:08:58;14.27;;;8.43;;
2756;SDS011;1386;50.862;6.494;2024-03-25T07:11:27;16.67;;;8.97;;
2756;SDS011;1386;50.862;6.494;2024-03-25T07:13:53;16.13;;;9.50;;
2756;SDS011;1386;50.862;6.494;2024-03-25T07:16:21;13.77;;;10.63;;
2756;SDS011;1386;50.862;6.494;2024-03-25T07:18:47;15.33;;;9.87;;
2756;SDS011;1386;50.862;6.494;2024-03-25T07:21:12;18.30;;;10.33;;
2756;SDS011;1386;50.862;6.494;2024-03-25T07:23:38;13.37;;;9.77;;
2756;SDS011;1386;50.862;6.494;2024-03-25T07:26:04;17.97;;;10.10;;
2756;SDS011;1386;50.862;6.494;2024-03-25T07:28:30;15.40;;;8.87;;
2756;SDS011;1386;50.862;6.494;2024-03-25T07:30:56;19.93;;;9.37;;
2756;SDS011;1386;50.862;6.494;2024-03-25T07:33:23;15.40;;;9.00;;
2756;SDS011;1386;50.862;6.494;2024-03-25T07:35:49;10.97;;;7.70;;
2756;SDS011;1386;50.862;6.494;2024-03-25T07:38:15;15.50;;;8.67;;
2756;SDS011;1386;50.862;6.494;2024-03-25T07:40:41;16.33;;;9.37;;
2756;SDS011;1386;50.862;6.494;2024-03-25T07:43:07;14.30;;;8.50;;
2756;SDS011;1386;50.862;6.494;2024-03-25T07:45:33;14.43;;;8.13;;
2756;SDS011;1386;50.862;6.494;2024-03-25T07:47:59;19.50;;;8.87;;
2756;SDS011;1386;50.862;6.494;2024-03-25T07:50:27;12.50;;;8.10;;
2756;SDS011;1386;50.862;6.494;2024-03-25T07:52:53;10.30;;;8.20;;
2756;SDS011;1386;50.862;6.494;2024-03-25T07:55:19;11.00;;;7.73;;
2756;SDS011;1386;50.862;6.494;2024-03-25T07:57:45;14.77;;;7.80;;
2756;SDS011;1386;50.862;6.494;2024-03-25T08:00:11;10.40;;;8.70;;
2756;SDS011;1386;50.862;6.494;2024-03-25T08:02:38;10.93;;;7.80;;
2756;SDS011;1386;50.862;6.494;2024-03-25T08:05:04;10.80;;;7.70;;
2756;SDS011;1386;50.862;6.494;2024-03-25T08:07:35;13.20;;;8.03;;
2756;SDS011;1386;50.862;6.494;2024-03-25T08:10:10;9.97;;;6.27;;
2756;SDS011;1386;50.862;6.494;2024-03-25T08:13:19;13.57;;;6.97;;
2756;SDS011;1386;50.862;6.494;2024-03-25T08:15:45;12.27;;;6.60;;
2756;SDS011;1386;50.862;6.494;2024-03-25T08:18:15;14.13;;;6.93;;
2756;SDS011;1386;50.862;6.494;2024-03-25T08:20:41;10.60;;;7.20;;
2756;SDS011;1386;50.862;6.494;2024-03-25T08:23:10;13.03;;;8.00;;
2756;SDS011;1386;50.862;6.494;2024-03-25T08:25:35;12.60;;;6.70;;
2756;SDS011;1386;50.862;6.494;2024-03-25T08:28:02;7.70;;;6.27;;
2756;SDS011;1386;50.862;6.494;2024-03-25T08:30:28;9.90;;;6.27;;
2756;SDS011;1386;50.862;6.494;2024-03-25T08:39:22;12.97;;;6.03;;
2756;SDS011;1386;50.862;6.494;2024-03-25T08:41:49;13.03;;;5.30;;
2756;SDS011;1386;50.862;6.494;2024-03-25T08:47:22;10.17;;;5.50;;
2756;SDS011;1386;50.862;6.494;2024-03-25T08:49:59;13.10;;;5.70;;
2756;SDS011;1386;50.862;6.494;2024-03-25T08:52:29;10.30;;;5.90;;
2756;SDS011;1386;50.862;6.494;2024-03-25T09:16:18;10.70;;;5.70;;
2756;SDS011;1386;50.862;6.494;2024-03-25T09:18:44;8.30;;;4.90;;
2756;SDS011;1386;50.862;6.494;2024-03-25T09:21:10;8.13;;;5.30;;
2756;SDS011;1386;50.862;6.494;2024-03-25T09:23:36;10.10;;;4.87;;
2756;SDS011;1386;50.862;6.494;2024-03-25T09:26:03;9.03;;;5.63;;
2756;SDS011;1386;50.862;6.494;2024-03-25T09:28:29;7.00;;;4.57;;
2756;SDS011;1386;50.862;6.494;2024-03-25T09:30:55;7.83;;;5.23;;
2756;SDS011;1386;50.862;6.494;2024-03-25T09:33:22;9.80;;;4.70;;
2756;SDS011;1386;50.862;6.494;2024-03-25T09:35:50;9.10;;;4.90;;
2756;SDS011;1386;50.862;6.494;2024-03-25T09:38:16;7.63;;;4.70;;
2756;SDS011;1386;50.862;6.494;2024-03-25T09:40:42;8.07;;;5.57;;
2756;SDS011;1386;50.862;6.494;2024-03-25T09:43:10;9.90;;;4.50;;
2756;SDS011;1386;50.862;6.494;2024-03-25T09:45:41;10.77;;;5.07;;
2756;SDS011;1386;50.862;6.494;2024-03-25T09:48:09;8.57;;;4.70;;
2756;SDS011;1386;50.862;6.494;2024-03-25T09:50:38;6.93;;;4.47;;
2756;SDS011;1386;50.862;6.494;2024-03-25T10:50:05;8.83;;;3.53;;
2756;SDS011;1386;50.862;6.494;2024-03-25T10:52:48;4.30;;;3.20;;
2756;SDS011;1386;50.862;6.494;2024-03-25T10:55:17;5.30;;;3.03;;
2756;SDS011;1386;50.862;6.494;2024-03-25T10:57:47;3.60;;;3.17;;
2756;SDS011;1386;50.862;6.494;2024-03-25T11:00:17;7.77;;;3.50;;
2756;SDS011;1386;50.862;6.494;2024-03-25T11:03:00;4.00;;;3.07;;
2756;SDS011;1386;50.862;6.494;2024-03-25T11:05:41;5.57;;;3.00;;
2756;SDS011;1386;50.862;6.494;2024-03-25T11:08:11;5.03;;;3.10;;
2756;SDS011;1386;50.862;6.494;2024-03-25T11:16:51;5.17;;;3.20;;
2756;SDS011;1386;50.862;6.494;2024-03-25T14:02:37;5.80;;;2.37;;
2756;SDS011;1386;50.862;6.494;2024-03-25T18:33:31;6.70;;;3.47;;
2756;SDS011;1386;50.862;6.494;2024-03-25T18:36:29;6.10;;;2.33;;
2756;SDS011;1386;50.862;6.494;2024-03-25T18:39:34;4.07;;;2.13;;
2756;SDS011;1386;50.862;6.494;2024-03-25T18:42:15;3.30;;;2.07;;
2756;SDS011;1386;50.862;6.494;2024-03-25T18:44:47;4.40;;;3.13;;
2756;SDS011;1386;50.862;6.494;2024-03-25T18:50:37;4.93;;;2.47;;
2756;SDS011;1386;50.862;6.494;2024-03-25T18:53:15;3.80;;;2.33;;
2756;SDS011;1386;50.862;6.494;2024-03-25T18:56:01;2.83;;;2.20;;
2756;SDS011;1386;50.862;6.494;2024-03-25T18:59:28;6.30;;;2.77;;
2756;SDS011;1386;50.862;6.494;2024-03-25T19:01:55;5.73;;;2.70;;
2756;SDS011;1386;50.862;6.494;2024-03-25T19:26:57;5.20;;;2.60;;
2756;SDS011;1386;50.862;6.494;2024-03-25T19:29:40;2.33;;;2.13;;
2756;SDS011;1386;50.862;6.494;2024-03-25T19:32:33;3.20;;;2.00;;
2756;SDS011;1386;50.862;6.494;2024-03-25T19:35:26;4.63;;;2.30;;
2756;SDS011;1386;50.862;6.494;2024-03-25T19:38:05;3.90;;;2.43;;
2756;SDS011;1386;50.862;6.494;2024-03-25T19:50:27;2.97;;;2.50;;
2756;SDS011;1386;50.862;6.494;2024-03-25T19:53:15;2.90;;;2.47;;
2756;SDS011;1386;50.862;6.494;2024-03-25T19:55:46;7.53;;;2.50;;
2756;SDS011;1386;50.862;6.494;2024-03-25T19:58:30;3.13;;;2.40;;
2756;SDS011;1386;50.862;6.494;2024-03-25T20:01:08;4.97;;;2.67;;
2756;SDS011;1386;50.862;6.494;2024-03-25T20:04:06;4.00;;;2.50;;
2756;SDS011;1386;50.862;6.494;2024-03-25T20:07:04;5.60;;;2.63;;
2756;SDS011;1386;50.862;6.494;2024-03-25T20:09:58;5.00;;;2.37;;
2756;SDS011;1386;50.862;6.494;2024-03-25T20:15:56;4.70;;;2.33;;
2756;SDS011;1386;50.862;6.494;2024-03-25T20:18:48;4.60;;;2.77;;
2756;SDS011;1386;50.862;6.494;2024-03-25T20:22:26;3.13;;;2.83;;
2756;SDS011;1386;50.862;6.494;2024-03-25T20:30:45;3.00;;;2.30;;
2756;SDS011;1386;50.862;6.494;2024-03-25T20:33:40;6.30;;;2.60;;
2756;SDS011;1386;50.862;6.494;2024-03-25T20:36:06;5.10;;;3.07;;
2756;SDS011;1386;50.862;6.494;2024-03-25T20:38:32;9.33;;;3.13;;
2756;SDS011;1386;50.862;6.494;2024-03-25T20:41:00;3.30;;;2.60;;
2756;SDS011;1386;50.862;6.494;2024-03-25T20:43:25;4.73;;;2.83;;
2756;SDS011;1386;50.862;6.494;2024-03-25T20:45:51;4.40;;;2.77;;
2756;SDS011;1386;50.862;6.494;2024-03-25T20:48:17;3.20;;;2.47;;
2756;SDS011;1386;50.862;6.494;2024-03-25T20:50:43;4.53;;;2.93;;
2756;SDS011;1386;50.862;6.494;2024-03-25T20:53:09;6.17;;;3.07;;
2756;SDS011;1386;50.862;6.494;2024-03-25T20:55:35;6.00;;;2.77;;
2756;SDS011;1386;50.862;6.494;2024-03-25T20:58:02;4.07;;;2.40;;
2756;SDS011;1386;50.862;6.494;2024-03-25T21:00:28;4.57;;;2.20;;
2756;SDS011;1386;50.862;6.494;2024-03-25T21:02:54;3.50;;;2.47;;
2756;SDS011;1386;50.862;6.494;2024-03-25T21:05:20;5.37;;;3.00;;
2756;SDS011;1386;50.862;6.494;2024-03-25T21:07:46;4.17;;;2.70;;
2756;SDS011;1386;50.862;6.494;2024-03-25T21:10:12;4.13;;;2.50;;
2756;SDS011;1386;50.862;6.494;2024-03-25T21:12:38;3.20;;;2.50;;
2756;SDS011;1386;50.862;6.494;2024-03-25T21:15:06;4.90;;;2.70;;
2756;SDS011;1386;50.862;6.494;2024-03-25T21:17:32;2.77;;;2.23;;
2756;SDS011;1386;50.862;6.494;2024-03-25T21:19:58;4.07;;;2.70;;
2756;SDS011;1386;50.862;6.494;2024-03-25T21:22:24;8.43;;;2.67;;
2756;SDS011;1386;50.862;6.494;2024-03-25T21:24:49;2.33;;;2.10;;
2756;SDS011;1386;50.862;6.494;2024-03-25T21:27:15;3.60;;;2.70;;
2756;SDS011;1386;50.862;6.494;2024-03-25T21:29:41;4.80;;;2.97;;
2756;SDS011;1386;50.862;6.494;2024-03-25T21:32:08;4.30;;;2.90;;
2756;SDS011;1386;50.862;6.494;2024-03-25T21:34:34;7.87;;;2.57;;
2756;SDS011;1386;50.862;6.494;2024-03-25T21:37:00;2.73;;;2.03;;
2756;SDS011;1386;50.862;6.494;2024-03-25T21:39:26;2.83;;;2.13;;
2756;SDS011;1386;50.862;6.494;2024-03-25T21:41:52;4.33;;;2.40;;
2756;SDS011;1386;50.862;6.494;2024-03-25T21:44:18;5.20;;;2.90;;
2756;SDS011;1386;50.862;6.494;2024-03-25T21:46:44;2.63;;;2.17;;
2756;SDS011;1386;50.862;6.494;2024-03-25T21:49:11;4.90;;;2.80;;
2756;SDS011;1386;50.862;6.494;2024-03-25T21:51:37;6.47;;;2.87;;
